sim
Sign-in with your pilot id or email,
or register
Callsign
Passwort

Schedule Details

Flight Number: EWG1813
Departure: Fuerteventura Airport (GCFV) at 10:55
Arrival: Munich Airport (EDDM) at 15:20
Route: Eurowings Passenger Schedule. Enter filed route here before submitting Pirep.

Weather Information
Getting current METAR information for GCFV 160300Z AUTO 27006KT 9999 NCD 13/11 Q1017
Getting current METAR information for EDDM 160250Z 00000KT 3000 0800SW R08L/0375V0650U R08R/0400V0700U BCFG NSC M04/M05 Q1029 NOSIG

Schedule Frequency

Route Map